Cruise inventory

RV Colonel Templer SESAME-2

Cruise plan

Cruise Info. 
Ship name (ship code)RV Colonel Templer (74TC)
Cruise identifierSESAME-2
Cruise period1996-07-30 — 1996-08-29
StatusCompleted
ObjectivesIn August-September 1995 (SESAME-1) and August 1996 (SESAME-2) the Shelf Edge Study Acoustic Measurement experiment (SESAME) took place on the Malin shelf-edge, on the North-West UK shelf margin. The experiment coincided with the NERC SES experiment, and a large complementary dataset of remotely sensed and in-situ measurements was gathered.
Chief scientistUnknown (Unknown)
Data held at BODC 
Series/Profiles 
71  CTD/STD cast
Vertical spatial coordinates
Salinity of the water column
Temperature of the water column
Reference numbers
Vertical spatial coordinates
Salinity of the water column
Temperature of the water column
Reference numbers

BODC idDate/TimeLocationDoc.
4952771996-08-04 14:29 56° 34' 13" N  9° 6' 52" W  View metadata report for BODC series reference number 495277
4952891996-08-04 14:49 56° 34' 31" N  9° 6' 57" W  View metadata report for BODC series reference number 495289
4952901996-08-04 15:19 56° 34' 53" N  9° 7' 11" W  View metadata report for BODC series reference number 495290
4953081996-08-04 15:41 56° 35' 13" N  9° 7' 24" W  View metadata report for BODC series reference number 495308
4953211996-08-04 16:02 56° 35' 35" N  9° 7' 33" W  View metadata report for BODC series reference number 495321
4953331996-08-04 16:20 56° 35' 54" N  9° 7' 37" W  View metadata report for BODC series reference number 495333
4953451996-08-04 19:59 56° 30' 3" N  9° 7' 4" W  View metadata report for BODC series reference number 495345
4953571996-08-04 20:20 56° 30' 22" N  9° 6' 51" W  View metadata report for BODC series reference number 495357
4953691996-08-04 20:38 56° 30' 42" N  9° 6' 34" W  View metadata report for BODC series reference number 495369
4953701996-08-04 21:10 56° 31' 12" N  9° 6' 3" W  View metadata report for BODC series reference number 495370
4953821996-08-04 21:26 56° 31' 31" N  9° 5' 52" W  View metadata report for BODC series reference number 495382
4953941996-08-04 21:46 56° 31' 54" N  9° 5' 36" W  View metadata report for BODC series reference number 495394
4954011996-08-14 20:22 56° 35' 23" N  8° 58' 55" W  View metadata report for BODC series reference number 495401
4954131996-08-19 22:00 56° 31' 59" N  9° 1' 48" W  View metadata report for BODC series reference number 495413
4954251996-08-19 22:40 56° 31' 48" N  9° 1' 59" W  View metadata report for BODC series reference number 495425
4954371996-08-19 23:01 56° 31' 38" N  9° 2' 3" W  View metadata report for BODC series reference number 495437
4954491996-08-19 23:47 56° 31' 58" N  9° 1' 47" W  View metadata report for BODC series reference number 495449
4954501996-08-20 00:08 56° 31' 52" N  9° 1' 23" W  View metadata report for BODC series reference number 495450
4954621996-08-20 00:49 56° 31' 32" N  9° 0' 34" W  View metadata report for BODC series reference number 495462
4954741996-08-20 01:00 56° 31' 34" N  9° 0' 25" W  View metadata report for BODC series reference number 495474
4954861996-08-20 01:15 56° 31' 28" N  9° 0' 10" W  View metadata report for BODC series reference number 495486
4954981996-08-20 01:28 56° 31' 22" N  8° 59' 58" W  View metadata report for BODC series reference number 495498
4955051996-08-20 01:40 56° 31' 15" N  8° 59' 51" W  View metadata report for BODC series reference number 495505
4955171996-08-20 01:51 56° 31' 14" N  8° 59' 43" W  View metadata report for BODC series reference number 495517
4955291996-08-20 02:02 56° 31' 12" N  8° 59' 32" W  View metadata report for BODC series reference number 495529
4955301996-08-20 02:14 56° 31' 10" N  8° 59' 24" W  View metadata report for BODC series reference number 495530
4955421996-08-20 02:25 56° 31' 10" N  8° 59' 8" W  View metadata report for BODC series reference number 495542
4955541996-08-20 02:37 56° 31' 10" N  8° 59' 0" W  View metadata report for BODC series reference number 495554
4955661996-08-20 02:47 56° 31' 9" N  8° 58' 51" W  View metadata report for BODC series reference number 495566
4955781996-08-20 02:58 56° 31' 9" N  8° 58' 39" W  View metadata report for BODC series reference number 495578
4955911996-08-20 03:10 56° 31' 7" N  8° 58' 30" W  View metadata report for BODC series reference number 495591
4956091996-08-20 03:20 56° 31' 8" N  8° 58' 15" W  View metadata report for BODC series reference number 495609
4956101996-08-20 03:31 56° 31' 7" N  8° 58' 6" W  View metadata report for BODC series reference number 495610
4956221996-08-20 03:42 56° 31' 9" N  8° 57' 54" W  View metadata report for BODC series reference number 495622
4956341996-08-20 03:54 56° 31' 8" N  8° 57' 37" W  View metadata report for BODC series reference number 495634
4956461996-08-20 04:02 56° 31' 8" N  8° 57' 28" W  View metadata report for BODC series reference number 495646
4956581996-08-20 04:09 56° 31' 9" N  8° 57' 20" W  View metadata report for BODC series reference number 495658
4956711996-08-20 04:17 56° 31' 8" N  8° 57' 9" W  View metadata report for BODC series reference number 495671
4956831996-08-20 04:28 56° 31' 6" N  8° 56' 50" W  View metadata report for BODC series reference number 495683
4956951996-08-20 04:35 56° 31' 6" N  8° 56' 36" W  View metadata report for BODC series reference number 495695
4957021996-08-20 04:42 56° 31' 7" N  8° 56' 26" W  View metadata report for BODC series reference number 495702
4957141996-08-20 04:51 56° 31' 6" N  8° 56' 11" W  View metadata report for BODC series reference number 495714
4957261996-08-20 05:00 56° 31' 5" N  8° 55' 55" W  View metadata report for BODC series reference number 495726
4957381996-08-20 05:07 56° 31' 7" N  8° 55' 40" W  View metadata report for BODC series reference number 495738
4957511996-08-20 05:15 56° 31' 5" N  8° 55' 24" W  View metadata report for BODC series reference number 495751
4957631996-08-20 05:28 56° 31' 3" N  8° 55' 1" W  View metadata report for BODC series reference number 495763
4957751996-08-20 05:35 56° 30' 58" N  8° 54' 46" W  View metadata report for BODC series reference number 495775
4957871996-08-20 05:42 56° 30' 56" N  8° 54' 31" W  View metadata report for BODC series reference number 495787
4957991996-08-20 06:01 56° 30' 51" N  8° 53' 55" W  View metadata report for BODC series reference number 495799
4958061996-08-20 06:07 56° 30' 50" N  8° 53' 47" W  View metadata report for BODC series reference number 495806
4958181996-08-20 06:14 56° 30' 46" N  8° 53' 29" W  View metadata report for BODC series reference number 495818
4958311996-08-20 06:20 56° 30' 43" N  8° 53' 18" W  View metadata report for BODC series reference number 495831
4958431996-08-20 06:26 56° 30' 40" N  8° 53' 4" W  View metadata report for BODC series reference number 495843
4958551996-08-20 06:32 56° 30' 38" N  8° 52' 51" W  View metadata report for BODC series reference number 495855
4958671996-08-20 06:38 56° 30' 35" N  8° 52' 39" W  View metadata report for BODC series reference number 495867
4958791996-08-20 06:44 56° 30' 33" N  8° 52' 30" W  View metadata report for BODC series reference number 495879
4958801996-08-20 06:53 56° 30' 26" N  8° 52' 14" W  View metadata report for BODC series reference number 495880
4958921996-08-20 15:40 56° 32' 59" N  9° 1' 9" W  View metadata report for BODC series reference number 495892
4959111996-08-20 15:55 56° 32' 54" N  9° 1' 13" W  View metadata report for BODC series reference number 495911
4959231996-08-20 16:05 56° 32' 50" N  9° 1' 13" W  View metadata report for BODC series reference number 495923
4959351996-08-20 16:16 56° 32' 48" N  9° 1' 13" W  View metadata report for BODC series reference number 495935
4959471996-08-20 16:26 56° 32' 42" N  9° 1' 13" W  View metadata report for BODC series reference number 495947
4959591996-08-20 16:33 56° 32' 43" N  9° 1' 10" W  View metadata report for BODC series reference number 495959
4959601996-08-20 16:39 56° 32' 42" N  9° 1' 3" W  View metadata report for BODC series reference number 495960
4959721996-08-20 16:46 56° 32' 39" N  9° 1' 1" W  View metadata report for BODC series reference number 495972
4959841996-08-20 16:52 56° 32' 35" N  9° 1' 5" W  View metadata report for BODC series reference number 495984
4959961996-08-20 16:59 56° 32' 34" N  9° 0' 58" W  View metadata report for BODC series reference number 495996
4960111996-08-20 17:05 56° 32' 31" N  9° 1' 0" W  View metadata report for BODC series reference number 496011
4960231996-08-20 17:13 56° 32' 29" N  9° 0' 55" W  View metadata report for BODC series reference number 496023
4960351996-08-20 17:23 56° 32' 25" N  9° 0' 50" W  View metadata report for BODC series reference number 496035
4960471996-08-20 17:34 56° 32' 20" N  9° 0' 42" W  View metadata report for BODC series reference number 496047